createdAt,value
2018-12-01T00:00:27.696Z,6.03
2018-12-01T00:01:37.983Z,7.58
2018-12-01T00:02:47.986Z,5.42
2018-12-01T00:03:58.059Z,5.50
2018-12-01T00:05:08.243Z,7.75
2018-12-01T00:06:18.202Z,5.00
2018-12-01T00:07:34.986Z,7.40
2018-12-01T00:08:51.850Z,5.15
2018-12-01T00:10:02.045Z,5.50
2018-12-01T00:11:12.148Z,7.20
2018-12-01T00:12:22.281Z,6.03
2018-12-01T00:13:32.529Z,7.65
2018-12-01T00:14:42.822Z,7.25
2018-12-01T00:15:53.141Z,9.40
2018-12-01T00:17:02.971Z,7.47
2018-12-01T00:18:12.911Z,5.87
2018-12-01T00:19:23.874Z,7.45
2018-12-01T00:20:36.820Z,4.65
2018-12-01T00:21:46.897Z,8.08
2018-12-01T00:22:57.229Z,5.37
2018-12-01T00:24:07.207Z,7.10
2018-12-01T00:25:17.364Z,6.53
2018-12-01T00:26:27.377Z,9.25
2018-12-01T00:27:37.427Z,7.20
2018-12-01T00:28:47.564Z,6.28
2018-12-01T00:29:57.375Z,7.62
2018-12-01T00:31:06.941Z,6.10
2018-12-01T00:32:17.309Z,5.97
2018-12-01T00:33:28.508Z,6.45
2018-12-01T00:34:38.521Z,7.22
2018-12-01T00:35:48.766Z,6.83
2018-12-01T00:36:59.014Z,6.25
2018-12-01T00:38:09.176Z,5.60
2018-12-01T00:39:19.145Z,5.60
2018-12-01T00:40:29.845Z,8.10
2018-12-01T00:41:40.582Z,6.20
2018-12-01T00:42:50.882Z,7.03
2018-12-01T00:44:00.786Z,9.65
2018-12-01T00:45:13.205Z,7.78
2018-12-01T00:46:23.794Z,6.33
2018-12-01T00:47:33.943Z,8.35
2018-12-01T00:48:44.193Z,7.03
2018-12-01T00:49:54.450Z,9.45
2018-12-01T00:51:05.216Z,7.80
2018-12-01T00:52:15.859Z,6.60
2018-12-01T00:53:26.531Z,6.35
2018-12-01T00:54:36.741Z,8.20
2018-12-01T00:55:47.492Z,6.33
2018-12-01T00:56:57.064Z,9.65
2018-12-01T00:58:07.459Z,8.03
2018-12-01T00:59:17.971Z,8.65
2018-12-01T01:00:29.072Z,7.97
2018-12-01T01:01:39.510Z,8.83
2018-12-01T01:02:52.304Z,8.30
2018-12-01T01:04:02.714Z,7.92
2018-12-01T01:05:13.024Z,7.20
2018-12-01T01:06:23.363Z,9.25
2018-12-01T01:07:34.003Z,7.50
2018-12-01T01:08:44.084Z,8.78
2018-12-01T01:09:54.097Z,8.73
2018-12-01T01:11:04.548Z,7.60
2018-12-01T01:12:15.766Z,8.05
2018-12-01T01:13:26.358Z,6.70
2018-12-01T01:14:36.325Z,10.30
2018-12-01T01:15:46.886Z,6.65
2018-12-01T01:16:57.466Z,7.00
2018-12-01T01:18:07.769Z,6.25
2018-12-01T01:19:19.402Z,9.60
2018-12-01T01:20:30.504Z,10.25
2018-12-01T01:21:40.968Z,7.47
2018-12-01T01:22:51.773Z,8.80
2018-12-01T01:24:01.847Z,9.08
2018-12-01T01:25:12.757Z,7.83
2018-12-01T01:26:23.131Z,8.48
2018-12-01T01:27:33.128Z,7.97
2018-12-01T01:28:43.307Z,7.72
2018-12-01T01:29:53.797Z,6.85
2018-12-01T01:31:04.360Z,8.00
2018-12-01T01:32:14.708Z,9.45
2018-12-01T01:33:30.083Z,8.63
2018-12-01T01:34:40.079Z,9.88
2018-12-01T01:35:51.623Z,7.70
2018-12-01T01:37:01.698Z,7.42
2018-12-01T01:38:11.991Z,9.35
2018-12-01T01:39:22.399Z,8.78
2018-12-01T01:40:32.883Z,8.63
2018-12-01T01:41:43.264Z,8.55
2018-12-01T01:43:00.100Z,8.50
2018-12-01T01:44:10.220Z,10.82
2018-12-01T01:45:20.623Z,8.28
2018-12-01T01:46:30.645Z,9.38
2018-12-01T01:47:41.007Z,8.10
2018-12-01T01:48:51.060Z,7.85
2018-12-01T01:50:01.428Z,7.47
2018-12-01T01:51:11.855Z,9.05
2018-12-01T01:52:21.879Z,9.53
2018-12-01T01:53:31.980Z,10.25
2018-12-01T01:54:42.059Z,9.40
2018-12-01T01:55:52.233Z,9.30
2018-12-01T01:57:03.016Z,7.47
2018-12-01T01:58:13.662Z,11.80
2018-12-01T01:59:23.697Z,8.83
2018-12-01T02:00:33.394Z,7.55
2018-12-01T02:01:44.062Z,9.68
2018-12-01T02:02:54.381Z,10.32
2018-12-01T02:04:04.755Z,9.30
2018-12-01T02:05:15.735Z,7.85
2018-12-01T02:06:25.947Z,8.20
2018-12-01T02:07:36.195Z,9.90
2018-12-01T02:08:46.327Z,7.87
2018-12-01T02:09:56.954Z,12.47
2018-12-01T02:11:07.388Z,8.15
2018-12-01T02:12:17.603Z,9.40
2018-12-01T02:13:28.275Z,8.10
2018-12-01T02:14:38.774Z,9.80
2018-12-01T02:15:48.937Z,8.80
2018-12-01T02:17:00.071Z,14.47
2018-12-01T02:18:10.540Z,7.25
2018-12-01T02:19:20.463Z,9.65
2018-12-01T02:20:31.913Z,7.75
2018-12-01T02:21:42.557Z,9.30
2018-12-01T02:22:52.804Z,8.85
2018-12-01T02:24:03.589Z,7.45
2018-12-01T02:25:15.581Z,7.78
2018-12-01T02:26:26.714Z,11.25
2018-12-01T02:27:37.495Z,12.13
2018-12-01T02:28:48.129Z,8.65
2018-12-01T02:29:58.536Z,8.25
2018-12-01T02:31:08.689Z,9.43
2018-12-01T02:32:19.306Z,8.40
2018-12-01T02:33:29.731Z,10.55
2018-12-01T02:34:40.497Z,10.25
2018-12-01T02:35:50.590Z,8.58
2018-12-01T02:37:01.102Z,8.70
2018-12-01T02:38:11.747Z,9.10
2018-12-01T02:39:21.834Z,9.00
2018-12-01T02:40:32.412Z,9.10
2018-12-01T02:41:43.055Z,9.73
2018-12-01T02:42:53.486Z,8.05
2018-12-01T02:44:14.493Z,7.00
2018-12-01T02:45:36.226Z,9.73
2018-12-01T02:48:33.318Z,8.53
2018-12-01T02:49:43.257Z,10.65
2018-12-01T02:50:53.603Z,9.68
2018-12-01T02:52:04.739Z,9.10
2018-12-01T02:53:15.178Z,8.13
2018-12-01T02:54:26.181Z,9.05
2018-12-01T02:55:36.073Z,8.30
2018-12-01T02:56:46.776Z,7.03
2018-12-01T02:57:58.152Z,8.08
2018-12-01T02:59:08.883Z,7.22
2018-12-01T03:00:19.442Z,8.40
2018-12-01T03:01:30.668Z,8.45
2018-12-01T03:02:41.090Z,10.23
2018-12-01T03:03:51.928Z,12.55
2018-12-01T03:05:02.281Z,6.35
2018-12-01T03:06:12.494Z,9.35
2018-12-01T03:07:23.028Z,7.90
2018-12-01T03:08:33.732Z,8.60
2018-12-01T03:09:45.150Z,8.00
2018-12-01T03:10:56.331Z,9.78
2018-12-01T03:12:06.574Z,7.95
2018-12-01T03:13:17.068Z,8.20
2018-12-01T03:14:27.279Z,7.60
2018-12-01T03:15:37.645Z,9.05
2018-12-01T03:16:47.990Z,8.68
2018-12-01T03:17:59.532Z,8.65
2018-12-01T03:19:10.487Z,10.78
2018-12-01T03:20:22.238Z,8.18
2018-12-01T03:21:33.587Z,7.05
2018-12-01T03:22:44.172Z,7.20
2018-12-01T03:23:54.736Z,8.65
2018-12-01T03:25:05.446Z,10.20
2018-12-01T03:26:15.737Z,8.08
2018-12-01T03:27:25.907Z,7.10
2018-12-01T03:28:37.416Z,6.83
2018-12-01T03:29:47.994Z,7.30
2018-12-01T03:30:58.405Z,8.30
2018-12-01T03:32:08.928Z,8.88
2018-12-01T03:33:19.078Z,6.78
2018-12-01T03:34:29.054Z,10.13
2018-12-01T03:35:39.112Z,9.65
2018-12-01T03:36:49.817Z,6.33
2018-12-01T03:38:00.186Z,9.33
2018-12-01T03:39:10.652Z,7.20
2018-12-01T03:40:21.952Z,9.85
2018-12-01T03:41:33.161Z,8.35
2018-12-01T03:42:43.642Z,8.15
2018-12-01T03:43:54.097Z,6.85
2018-12-01T03:45:04.843Z,6.90
2018-12-01T03:46:15.203Z,8.35
2018-12-01T03:47:25.474Z,8.75
2018-12-01T03:48:36.592Z,8.05
2018-12-01T03:49:47.203Z,8.65
2018-12-01T03:50:57.990Z,8.43
2018-12-01T03:52:08.644Z,9.30
2018-12-01T03:53:18.623Z,7.75
2018-12-01T03:54:29.478Z,7.90
2018-12-01T03:55:39.592Z,8.08
2018-12-01T03:56:50.028Z,9.03
2018-12-01T03:58:00.558Z,10.20
2018-12-01T03:59:11.523Z,8.90
2018-12-01T04:00:28.559Z,11.35
2018-12-01T04:01:39.260Z,9.10
2018-12-01T04:02:49.766Z,8.00
2018-12-01T04:04:00.660Z,7.45
2018-12-01T04:05:11.437Z,10.13
2018-12-01T04:06:22.658Z,7.15
2018-12-01T04:07:32.986Z,7.40
2018-12-01T04:08:43.521Z,8.15
2018-12-01T04:09:54.725Z,9.83
2018-12-01T04:11:04.938Z,8.53
2018-12-01T04:12:15.817Z,6.80
2018-12-01T04:13:27.387Z,10.53
2018-12-01T04:14:37.875Z,8.08
2018-12-01T04:15:49.536Z,7.62
2018-12-01T04:16:59.910Z,9.55
2018-12-01T04:18:10.555Z,7.22
2018-12-01T04:19:21.216Z,8.05
2018-12-01T04:20:31.647Z,8.40
2018-12-01T04:21:42.135Z,8.35
2018-12-01T04:22:52.555Z,10.32
2018-12-01T04:24:03.077Z,8.38
2018-12-01T04:25:13.376Z,9.25
2018-12-01T04:26:24.655Z,10.08
2018-12-01T04:27:41.604Z,7.28
2018-12-01T04:28:52.735Z,7.45
2018-12-01T04:30:03.076Z,8.85
2018-12-01T04:31:13.525Z,8.75
2018-12-01T04:32:23.877Z,7.15
2018-12-01T04:33:34.976Z,10.78
2018-12-01T04:34:52.255Z,11.53
2018-12-01T04:36:02.812Z,8.85
2018-12-01T04:37:13.325Z,9.45
2018-12-01T04:38:23.770Z,8.28
2018-12-01T04:39:34.284Z,7.97
2018-12-01T04:40:44.778Z,8.88
2018-12-01T04:41:55.084Z,8.73
2018-12-01T04:43:05.253Z,10.13
2018-12-01T04:44:15.403Z,8.35
2018-12-01T04:45:25.686Z,8.10
2018-12-01T04:46:36.553Z,8.23
2018-12-01T04:47:47.201Z,8.73
2018-12-01T04:48:57.716Z,7.65
2018-12-01T04:50:09.269Z,9.60
2018-12-01T04:51:19.757Z,7.33
2018-12-01T04:52:30.707Z,7.58
2018-12-01T04:53:41.224Z,9.65
2018-12-01T04:54:51.572Z,7.83
2018-12-01T04:56:01.835Z,7.28
2018-12-01T04:57:13.355Z,7.47
2018-12-01T04:58:23.746Z,8.33
2018-12-01T04:59:34.296Z,7.75
2018-12-01T05:00:47.613Z,7.47
2018-12-01T05:01:57.930Z,8.85
2018-12-01T05:03:08.425Z,10.58
2018-12-01T05:04:19.977Z,10.08
2018-12-01T05:05:30.586Z,8.13
2018-12-01T05:06:41.047Z,8.75
2018-12-01T05:07:51.803Z,7.58
2018-12-01T05:09:02.020Z,8.48
2018-12-01T05:10:13.328Z,7.42
2018-12-01T05:11:23.313Z,7.65
2018-12-01T05:12:33.876Z,8.85
2018-12-01T05:13:45.256Z,8.90
2018-12-01T05:14:55.728Z,8.80
2018-12-01T05:16:06.178Z,8.03
2018-12-01T05:17:16.899Z,10.08
2018-12-01T05:18:27.250Z,8.10
2018-12-01T05:19:37.722Z,10.00
2018-12-01T05:20:48.896Z,7.87
2018-12-01T05:21:59.216Z,7.62
2018-12-01T05:23:09.506Z,9.33
2018-12-01T05:24:19.727Z,6.92
2018-12-01T05:25:30.389Z,9.08
2018-12-01T05:26:41.255Z,9.38
2018-12-01T05:27:51.187Z,8.33
2018-12-01T05:29:01.582Z,8.18
2018-12-01T05:30:12.511Z,8.45
2018-12-01T05:31:22.585Z,7.10
2018-12-01T05:32:33.747Z,8.23
2018-12-01T05:33:43.829Z,7.90
2018-12-01T05:34:54.066Z,7.05
2018-12-01T05:36:04.469Z,6.05
2018-12-01T05:37:14.894Z,8.05
2018-12-01T05:38:25.131Z,8.50
2018-12-01T05:39:35.229Z,7.75
2018-12-01T05:40:46.092Z,7.92
2018-12-01T05:41:56.448Z,7.25
2018-12-01T05:43:07.145Z,7.05
2018-12-01T05:44:17.715Z,6.85
2018-12-01T05:45:28.116Z,8.00
2018-12-01T05:46:39.369Z,6.45
2018-12-01T05:47:50.046Z,8.05
2018-12-01T05:49:00.490Z,9.03
2018-12-01T05:50:11.578Z,8.08
2018-12-01T05:51:21.717Z,8.88
2018-12-01T05:52:32.480Z,6.80
2018-12-01T05:53:42.820Z,8.58
2018-12-01T05:54:53.186Z,7.90
2018-12-01T05:56:03.409Z,10.65
2018-12-01T05:57:13.999Z,8.13
2018-12-01T05:58:24.044Z,7.25
2018-12-01T05:59:34.459Z,6.60
2018-12-01T06:00:44.627Z,6.83
2018-12-01T06:01:55.372Z,9.60
2018-12-01T06:03:06.588Z,9.25
2018-12-01T06:04:17.235Z,7.00
2018-12-01T06:05:27.423Z,9.20
2018-12-01T06:06:37.575Z,6.83
2018-12-01T06:07:47.838Z,6.90
2018-12-01T06:08:58.231Z,5.83
2018-12-01T06:10:12.772Z,9.00
2018-12-01T06:11:23.241Z,6.50
2018-12-01T06:12:33.502Z,9.55
2018-12-01T06:13:44.628Z,6.10
2018-12-01T06:14:55.024Z,9.53
2018-12-01T06:16:04.972Z,7.83
2018-12-01T06:17:15.336Z,7.40
2018-12-01T06:18:25.880Z,10.78
2018-12-01T06:19:36.158Z,7.30
2018-12-01T06:20:46.203Z,7.72
2018-12-01T06:21:56.593Z,5.78
2018-12-01T06:23:07.057Z,7.80
2018-12-01T06:24:17.614Z,5.97
2018-12-01T06:25:27.903Z,7.12
2018-12-01T06:26:38.193Z,8.18
2018-12-01T06:27:48.614Z,7.20
2018-12-01T06:28:59.627Z,8.15
2018-12-01T06:30:11.584Z,7.25
2018-12-01T06:31:21.819Z,8.65
2018-12-01T06:32:31.624Z,7.67
2018-12-01T06:33:42.491Z,6.55
2018-12-01T06:34:52.925Z,6.28
2018-12-01T06:36:03.534Z,8.25
2018-12-01T06:37:13.702Z,6.97
2018-12-01T06:38:23.665Z,8.40
2018-12-01T06:39:34.137Z,10.78
2018-12-01T06:40:44.186Z,6.78
2018-12-01T06:41:54.816Z,9.43
2018-12-01T06:43:05.397Z,7.15
2018-12-01T06:44:15.837Z,7.30
2018-12-01T06:45:26.432Z,6.20
2018-12-01T06:46:36.689Z,6.12
2018-12-01T06:47:47.038Z,7.92
2018-12-01T06:48:57.206Z,8.35
2018-12-01T06:50:11.299Z,8.35
2018-12-01T06:51:21.403Z,7.42
2018-12-01T06:52:31.737Z,7.55
2018-12-01T06:53:42.163Z,6.15
2018-12-01T06:54:52.387Z,7.60
2018-12-01T06:56:02.273Z,6.62
2018-12-01T06:57:13.118Z,6.80
2018-12-01T06:58:23.479Z,7.37
2018-12-01T06:59:33.882Z,5.22
2018-12-01T07:00:44.484Z,5.30
2018-12-01T07:01:55.052Z,7.40
2018-12-01T07:03:05.390Z,5.90
2018-12-01T07:04:15.411Z,6.80
2018-12-01T07:05:25.791Z,8.05
2018-12-01T07:06:36.050Z,5.83
2018-12-01T07:07:46.456Z,5.25
2018-12-01T07:08:56.690Z,6.65
2018-12-01T07:11:06.827Z,7.37
2018-12-01T07:12:17.279Z,6.10
2018-12-01T07:13:27.900Z,7.22
2018-12-01T07:14:37.999Z,5.28
2018-12-01T07:15:48.212Z,4.40
2018-12-01T07:16:58.964Z,6.87
2018-12-01T07:18:20.388Z,7.75
2018-12-01T07:19:30.810Z,9.90
2018-12-01T07:20:41.020Z,5.62
2018-12-01T07:21:51.517Z,6.75
2018-12-01T07:23:01.712Z,7.80
2018-12-01T07:24:12.901Z,5.42
2018-12-01T07:25:23.456Z,7.70
2018-12-01T07:26:33.724Z,7.25
2018-12-01T07:27:43.949Z,5.85
2018-12-01T07:28:54.158Z,7.22
2018-12-01T07:30:05.234Z,6.60
2018-12-01T07:31:15.886Z,5.12
2018-12-01T07:32:26.142Z,6.65
2018-12-01T07:33:36.284Z,5.15
2018-12-01T07:34:46.600Z,8.10
2018-12-01T07:35:56.950Z,5.15
2018-12-01T07:37:07.650Z,7.65
2018-12-01T07:38:18.142Z,5.62
2018-12-01T07:39:28.780Z,5.37
2018-12-01T07:40:38.765Z,9.78
2018-12-01T07:41:49.103Z,6.90
2018-12-01T07:42:59.202Z,6.50
2018-12-01T07:44:09.491Z,5.37
2018-12-01T07:45:19.141Z,7.42
2018-12-01T07:46:29.559Z,4.62
2018-12-01T07:47:39.862Z,7.35
2018-12-01T07:48:50.183Z,10.28
2018-12-01T07:50:00.361Z,5.30
2018-12-01T07:51:11.067Z,4.83
2018-12-01T07:52:21.293Z,8.35
2018-12-01T07:53:31.589Z,5.47
2018-12-01T07:54:42.093Z,7.72
2018-12-01T07:55:52.852Z,8.48
2018-12-01T07:57:03.552Z,13.05
2018-12-01T07:58:14.089Z,5.42
2018-12-01T07:59:24.348Z,7.22
2018-12-01T08:00:35.288Z,6.75
2018-12-01T08:01:45.687Z,8.28
2018-12-01T08:02:55.673Z,6.72
2018-12-01T08:04:06.357Z,8.88
2018-12-01T08:05:16.256Z,6.25
2018-12-01T08:06:26.323Z,9.50
2018-12-01T08:07:37.006Z,9.10
2018-12-01T08:08:48.324Z,14.50
2018-12-01T08:09:59.146Z,7.50
2018-12-01T08:11:09.513Z,6.92
2018-12-01T08:12:19.924Z,7.87
2018-12-01T08:13:30.073Z,5.25
2018-12-01T08:14:40.231Z,6.78
2018-12-01T08:15:50.804Z,7.08
2018-12-01T08:17:01.062Z,6.87
2018-12-01T08:18:11.607Z,7.87
2018-12-01T08:19:21.662Z,6.92
2018-12-01T08:20:32.240Z,6.45
2018-12-01T08:21:42.991Z,8.88
2018-12-01T08:22:53.853Z,9.10
2018-12-01T08:24:03.683Z,10.30
2018-12-01T08:25:18.618Z,6.85
2018-12-01T08:26:28.531Z,6.83
2018-12-01T08:27:38.994Z,8.58
2018-12-01T08:28:49.958Z,7.60
2018-12-01T08:30:00.057Z,7.03
2018-12-01T08:31:10.687Z,5.87
2018-12-01T08:32:20.636Z,7.50
2018-12-01T08:33:30.994Z,7.72
2018-12-01T08:34:41.273Z,8.50
2018-12-01T08:35:52.645Z,9.53
2018-12-01T08:37:03.558Z,4.90
2018-12-01T08:38:14.373Z,5.00
2018-12-01T08:39:24.763Z,6.87
2018-12-01T08:40:35.617Z,8.10
2018-12-01T08:41:48.033Z,7.33
2018-12-01T08:42:58.524Z,5.80
2018-12-01T08:44:08.772Z,5.55
2018-12-01T08:45:20.789Z,6.95
2018-12-01T08:46:33.319Z,6.00
2018-12-01T08:47:45.290Z,5.20
2018-12-01T08:48:56.856Z,5.03
2018-12-01T08:50:13.498Z,5.30
2018-12-01T08:51:25.207Z,6.20
2018-12-01T08:52:36.578Z,7.03
2018-12-01T08:53:47.518Z,7.05
2018-12-01T08:54:58.164Z,5.90
2018-12-01T08:56:08.217Z,7.22
2018-12-01T08:57:19.286Z,5.80
2018-12-01T08:58:29.502Z,6.83
2018-12-01T08:59:40.031Z,6.20
2018-12-01T09:00:50.515Z,5.80
2018-12-01T09:02:00.568Z,7.22
2018-12-01T09:03:14.614Z,7.05
2018-12-01T09:04:25.075Z,8.90
2018-12-01T09:05:35.086Z,8.65
2018-12-01T09:06:46.151Z,6.08
2018-12-01T09:07:56.769Z,6.72
2018-12-01T09:09:08.930Z,8.00
2018-12-01T09:10:19.311Z,6.42
2018-12-01T09:11:29.537Z,8.63
2018-12-01T09:12:41.155Z,8.80
2018-12-01T09:13:51.840Z,5.70
2018-12-01T09:15:01.815Z,7.80
2018-12-01T09:16:12.233Z,6.58
2018-12-01T09:17:22.678Z,4.58
2018-12-01T09:18:33.062Z,4.45
2018-12-01T09:19:44.586Z,7.45
2018-12-01T09:20:54.653Z,6.03
2018-12-01T09:22:04.724Z,6.08
2018-12-01T09:23:15.126Z,4.55
2018-12-01T09:24:25.513Z,7.22
2018-12-01T09:25:36.297Z,6.17
2018-12-01T09:26:46.562Z,6.67
2018-12-01T09:27:57.515Z,5.75
2018-12-01T09:29:07.785Z,4.17
2018-12-01T09:30:20.808Z,6.03
2018-12-01T09:31:30.560Z,4.72
2018-12-01T09:32:41.239Z,6.55
2018-12-01T09:33:50.994Z,5.80
2018-12-01T09:35:01.089Z,4.45
2018-12-01T09:36:11.720Z,5.90
2018-12-01T09:37:22.014Z,5.17
2018-12-01T09:38:31.959Z,5.45
2018-12-01T09:39:41.812Z,7.22
2018-12-01T09:40:53.157Z,6.75
2018-12-01T09:42:03.245Z,5.22
2018-12-01T09:43:12.998Z,5.20
2018-12-01T09:44:23.390Z,6.00
2018-12-01T09:45:33.323Z,4.47
2018-12-01T09:46:43.484Z,5.60
2018-12-01T09:47:54.823Z,5.33
2018-12-01T09:49:04.974Z,4.15
2018-12-01T09:50:15.720Z,4.72
2018-12-01T09:51:26.313Z,4.62
2018-12-01T09:52:36.340Z,6.45
2018-12-01T09:53:46.330Z,6.28
2018-12-01T09:54:56.981Z,4.25
2018-12-01T09:56:06.975Z,4.33
2018-12-01T09:57:17.165Z,5.62
2018-12-01T09:58:27.373Z,6.15
2018-12-01T09:59:37.402Z,6.62
2018-12-01T10:00:47.591Z,7.17
2018-12-01T10:01:57.817Z,4.58
2018-12-01T10:03:09.064Z,4.15
2018-12-01T10:04:19.055Z,3.67
2018-12-01T10:05:29.327Z,9.25
2018-12-01T10:06:39.293Z,4.37
2018-12-01T10:07:49.244Z,5.97
2018-12-01T10:08:59.639Z,5.28
2018-12-01T10:10:11.998Z,7.55
2018-12-01T10:11:21.682Z,7.55
2018-12-01T10:12:32.174Z,4.97
2018-12-01T10:13:42.747Z,4.65
2018-12-01T10:14:52.610Z,3.83
2018-12-01T10:16:02.888Z,5.58
2018-12-01T10:17:13.158Z,4.60
2018-12-01T10:18:23.783Z,6.65
2018-12-01T10:19:34.071Z,5.30
2018-12-01T10:20:44.108Z,4.53
2018-12-01T10:21:53.855Z,7.00
2018-12-01T10:23:06.053Z,6.83
2018-12-01T10:24:16.028Z,5.97
2018-12-01T10:25:25.765Z,4.97
2018-12-01T10:26:35.997Z,3.75
2018-12-01T10:27:46.921Z,4.22
2018-12-01T10:28:56.884Z,4.35
2018-12-01T10:30:16.944Z,5.12
2018-12-01T10:31:27.556Z,6.78
2018-12-01T10:32:37.050Z,5.80
2018-12-01T10:33:47.141Z,4.50
2018-12-01T10:34:57.311Z,6.55
2018-12-01T10:36:07.600Z,5.92
2018-12-01T10:37:18.188Z,4.03
2018-12-01T10:38:28.669Z,4.75
2018-12-01T10:39:38.476Z,4.60
2018-12-01T10:40:48.456Z,4.60
2018-12-01T10:42:03.620Z,4.50
2018-12-01T10:43:09.145Z,5.35
2018-12-01T10:44:19.087Z,3.33
2018-12-01T10:45:29.184Z,3.90
2018-12-01T10:46:39.440Z,5.10
2018-12-01T10:47:49.901Z,5.05
2018-12-01T10:49:00.114Z,4.75
2018-12-01T10:50:13.374Z,4.97
2018-12-01T10:51:23.683Z,5.20
2018-12-01T10:52:33.914Z,6.72
2018-12-01T10:53:44.158Z,7.35
2018-12-01T10:54:53.966Z,5.25
2018-12-01T10:56:04.063Z,4.47
2018-12-01T10:57:14.366Z,5.65
2018-12-01T10:58:24.826Z,6.83
2018-12-01T10:59:35.174Z,5.03
2018-12-01T11:00:51.800Z,3.95
2018-12-01T11:02:07.105Z,2.75
2018-12-01T11:03:22.438Z,4.67
2018-12-01T11:04:38.847Z,2.72
2018-12-01T11:05:49.060Z,4.15
2018-12-01T11:06:59.228Z,3.87
2018-12-01T11:08:10.481Z,2.80
2018-12-01T11:09:20.822Z,3.95
2018-12-01T11:10:31.232Z,4.78
2018-12-01T11:11:41.849Z,3.20
2018-12-01T11:12:52.402Z,5.12
2018-12-01T11:14:02.925Z,4.00
2018-12-01T11:15:12.584Z,2.65
2018-12-01T11:16:23.385Z,2.37
2018-12-01T11:17:33.345Z,2.65
2018-12-01T11:18:43.766Z,3.35
2018-12-01T11:19:54.136Z,4.60
2018-12-01T11:21:05.769Z,2.90
2018-12-01T11:22:16.260Z,3.62
2018-12-01T11:23:26.691Z,3.05
2018-12-01T11:24:37.249Z,2.58
2018-12-01T11:25:47.850Z,5.65
2018-12-01T11:26:57.707Z,2.05
2018-12-01T11:28:08.140Z,2.27
2018-12-01T11:29:18.171Z,3.42
2018-12-01T11:30:28.352Z,4.00
2018-12-01T11:31:38.663Z,2.58
2018-12-01T11:32:49.399Z,2.20
2018-12-01T11:33:59.744Z,2.62
2018-12-01T11:35:09.918Z,5.22
2018-12-01T11:36:20.523Z,2.45
2018-12-01T11:37:30.843Z,1.60
2018-12-01T11:38:41.596Z,2.22
2018-12-01T11:39:52.853Z,1.82
2018-12-01T11:41:03.263Z,4.30
2018-12-01T11:42:13.361Z,4.22
2018-12-01T11:43:23.329Z,3.05
2018-12-01T11:44:33.699Z,2.75
2018-12-01T11:45:43.899Z,2.90
2018-12-01T11:46:54.328Z,2.30
2018-12-01T11:48:04.940Z,2.80
2018-12-01T11:49:15.849Z,1.92
2018-12-01T11:50:25.596Z,1.75
2018-12-01T11:51:35.746Z,2.15
2018-12-01T11:52:46.756Z,1.57
2018-12-01T11:53:57.207Z,1.90
2018-12-01T11:55:09.939Z,1.75
2018-12-01T11:56:20.199Z,2.17
2018-12-01T11:57:30.945Z,4.58
2018-12-01T11:58:41.260Z,3.45
2018-12-01T11:59:51.697Z,2.17
2018-12-01T12:01:02.465Z,2.62
2018-12-01T12:02:12.911Z,3.08
2018-12-01T12:03:23.291Z,2.20
2018-12-01T12:04:33.585Z,3.75
2018-12-01T12:05:44.485Z,7.20
2018-12-01T12:06:55.513Z,3.30
2018-12-01T12:08:26.278Z,2.15
2018-12-01T12:09:37.032Z,2.50
2018-12-01T12:10:47.308Z,1.72
2018-12-01T12:11:58.185Z,2.15
2018-12-01T12:13:08.923Z,3.33
2018-12-01T12:14:20.203Z,2.77
2018-12-01T12:15:30.651Z,1.95
2018-12-01T12:16:40.874Z,4.83
2018-12-01T12:17:57.554Z,3.00
2018-12-01T12:19:08.741Z,4.15
2018-12-01T12:20:18.925Z,1.70
2018-12-01T12:21:29.666Z,3.15
2018-12-01T12:22:39.907Z,3.00
2018-12-01T12:23:50.254Z,3.75
2018-12-01T12:25:00.808Z,1.15
2018-12-01T12:26:11.049Z,1.98
2018-12-01T12:27:22.327Z,2.87
2018-12-01T12:28:32.862Z,2.65
2018-12-01T12:29:42.820Z,1.55
2018-12-01T12:30:53.711Z,1.70
2018-12-01T12:32:04.388Z,1.57
2018-12-01T12:33:14.858Z,3.30
2018-12-01T12:34:25.539Z,3.08
2018-12-01T12:35:36.053Z,4.30
2018-12-01T12:36:46.575Z,2.02
2018-12-01T12:37:57.604Z,3.75
2018-12-01T12:39:08.215Z,1.42
2018-12-01T12:45:54.878Z,1.95
2018-12-01T12:47:05.662Z,7.45
2018-12-01T12:48:16.164Z,1.75
2018-12-01T12:49:26.251Z,1.92
2018-12-01T12:50:36.620Z,1.98
2018-12-01T12:51:46.652Z,3.70
2018-12-01T12:52:56.996Z,3.62
2018-12-01T12:54:07.329Z,2.62
2018-12-01T12:55:18.340Z,1.55
2018-12-01T12:56:28.939Z,1.95
2018-12-01T12:57:39.921Z,1.52
2018-12-01T12:58:50.203Z,4.30
2018-12-01T13:00:00.560Z,3.62
2018-12-01T13:01:10.909Z,3.08
2018-12-01T13:02:21.311Z,1.67
2018-12-01T13:03:31.773Z,1.40
2018-12-01T13:04:42.170Z,1.70
2018-12-01T13:05:52.209Z,2.08
2018-12-01T13:07:02.431Z,3.72
2018-12-01T13:08:14.937Z,3.65
2018-12-01T13:09:25.939Z,3.25
2018-12-01T13:10:35.929Z,2.85
2018-12-01T13:11:46.412Z,5.65
2018-12-01T13:12:56.842Z,2.40
2018-12-01T13:14:07.278Z,7.37
2018-12-01T13:15:18.255Z,4.20
2018-12-01T13:16:28.903Z,2.95
2018-12-01T13:17:39.426Z,2.85
2018-12-01T13:18:49.619Z,3.40
2018-12-01T13:20:00.155Z,4.25
2018-12-01T13:21:10.797Z,4.87
2018-12-01T13:22:21.126Z,3.83
2018-12-01T13:23:31.091Z,4.58
2018-12-01T13:24:41.741Z,3.27
2018-12-01T13:25:51.889Z,3.10
2018-12-01T13:27:02.243Z,4.53
2018-12-01T13:28:15.157Z,3.02
2018-12-01T13:29:25.781Z,5.33
2018-12-01T13:30:39.962Z,3.20
2018-12-01T13:31:54.534Z,4.30
2018-12-01T13:33:00.909Z,3.25
2018-12-01T13:34:11.256Z,3.67
2018-12-01T13:35:22.119Z,6.25
2018-12-01T13:36:32.399Z,5.28
2018-12-01T13:37:42.882Z,5.35
2018-12-01T13:38:53.243Z,6.47
2018-12-01T13:40:04.054Z,4.58
2018-12-01T13:41:14.210Z,3.80
2018-12-01T13:42:24.234Z,4.50
2018-12-01T13:43:34.339Z,4.28
2018-12-01T13:44:44.762Z,4.92
2018-12-01T13:45:54.979Z,5.45
2018-12-01T13:47:04.954Z,3.12
2018-12-01T13:48:15.148Z,3.47
2018-12-01T13:49:25.169Z,6.33
2018-12-01T13:50:35.390Z,3.83
2018-12-01T13:51:45.851Z,5.35
2018-12-01T13:53:00.986Z,4.25
2018-12-01T13:54:11.243Z,4.33
2018-12-01T13:55:21.173Z,4.00
2018-12-01T13:56:31.645Z,4.35
2018-12-01T13:57:41.743Z,3.33
2018-12-01T13:58:51.940Z,4.67
2018-12-01T14:00:02.264Z,3.45
2018-12-01T14:01:12.499Z,5.75
2018-12-01T14:02:22.629Z,5.05
2018-12-01T14:03:32.410Z,6.25
2018-12-01T14:04:42.979Z,5.10
2018-12-01T14:05:53.237Z,4.92
2018-12-01T14:07:03.273Z,4.15
2018-12-01T14:08:13.319Z,3.92
2018-12-01T14:09:23.646Z,7.92
2018-12-01T14:10:34.340Z,5.58
2018-12-01T14:11:44.175Z,5.28
2018-12-01T14:12:56.824Z,3.30
2018-12-01T14:14:07.460Z,6.42
2018-12-01T14:15:18.774Z,4.37
2018-12-01T14:16:29.343Z,3.20
2018-12-01T14:17:40.586Z,3.20
2018-12-01T14:18:52.053Z,3.80
2018-12-01T14:20:02.273Z,5.10
2018-12-01T14:21:13.143Z,3.10
2018-12-01T14:22:23.513Z,6.10
2018-12-01T14:23:34.749Z,3.33
2018-12-01T14:24:45.389Z,2.52
2018-12-01T14:25:55.660Z,3.60
2018-12-01T14:27:06.129Z,5.90
2018-12-01T14:28:16.995Z,4.15
2018-12-01T14:29:27.250Z,3.05
2018-12-01T14:30:37.695Z,4.20
2018-12-01T14:31:47.999Z,4.10
2018-12-01T14:32:58.511Z,5.58
2018-12-01T14:34:08.876Z,2.40
2018-12-01T14:35:36.789Z,2.47
2018-12-01T14:36:47.311Z,3.47
2018-12-01T14:38:09.487Z,3.05
2018-12-01T14:39:19.760Z,5.30
2018-12-01T14:40:29.758Z,6.33
2018-12-01T14:41:40.337Z,4.83
2018-12-01T14:42:50.932Z,4.42
2018-12-01T14:44:01.446Z,5.12
2018-12-01T14:45:13.539Z,7.95
2018-12-01T14:46:23.856Z,7.62
2018-12-01T14:47:34.148Z,2.47
2018-12-01T14:48:44.397Z,5.40
2018-12-01T14:49:54.885Z,3.65
2018-12-01T14:51:05.628Z,4.35
2018-12-01T14:52:16.154Z,2.40
2018-12-01T14:53:28.095Z,1.82
2018-12-01T14:54:38.535Z,5.80
2018-12-01T14:55:49.055Z,2.70
2018-12-01T14:56:59.741Z,2.85
2018-12-01T14:58:10.539Z,1.77
2018-12-01T14:59:21.346Z,3.70
2018-12-01T15:00:32.038Z,3.98
2018-12-01T15:01:42.625Z,2.67
2018-12-01T15:02:53.998Z,3.33
2018-12-01T15:04:04.516Z,2.08
2018-12-01T15:05:15.500Z,3.90
2018-12-01T15:06:25.903Z,4.67
2018-12-01T15:07:36.375Z,3.70
2018-12-01T15:08:46.999Z,3.85
2018-12-01T15:09:57.373Z,5.22
2018-12-01T15:11:08.333Z,4.60
2018-12-01T15:12:19.331Z,3.52
2018-12-01T15:13:29.828Z,4.00
2018-12-01T15:14:40.181Z,4.20
2018-12-01T15:15:50.872Z,4.45
2018-12-01T15:17:02.636Z,2.83
2018-12-01T15:18:13.142Z,2.10
2018-12-01T15:19:23.333Z,3.02
2018-12-01T15:20:34.476Z,2.83
2018-12-01T15:21:45.120Z,2.70
2018-12-01T15:22:56.594Z,2.50
2018-12-01T15:24:07.499Z,3.52
2018-12-01T15:25:19.472Z,3.55
2018-12-01T15:26:29.660Z,2.30
2018-12-01T15:27:40.443Z,3.10
2018-12-01T15:28:51.445Z,4.30
2018-12-01T15:30:02.132Z,5.05
2018-12-01T15:31:12.641Z,22.45
2018-12-01T15:32:23.060Z,8.88
2018-12-01T15:33:33.691Z,12.28
2018-12-01T15:34:44.081Z,12.63
2018-12-01T15:35:54.727Z,13.98
2018-12-01T15:37:05.640Z,7.17
2018-12-01T15:38:16.268Z,6.70
2018-12-01T15:39:28.729Z,4.78
2018-12-01T15:40:40.575Z,6.05
2018-12-01T15:41:50.928Z,5.65
2018-12-01T15:43:01.592Z,5.65
2018-12-01T15:44:12.151Z,3.35
2018-12-01T15:45:23.020Z,4.80
2018-12-01T15:46:33.676Z,5.40
2018-12-01T15:47:44.410Z,5.65
2018-12-01T15:48:54.677Z,6.37